sensor_id;sensor_type;location;lat;lon;timestamp;temperature;humidity
9083;DHT22;4577;48.704;9.000;2022-11-15T00:03:24;9.60;86.00
9083;DHT22;4577;48.704;9.000;2022-11-15T00:05:50;9.60;85.80
9083;DHT22;4577;48.704;9.000;2022-11-15T00:08:16;9.70;85.70
9083;DHT22;4577;48.704;9.000;2022-11-15T00:13:12;9.60;85.50
9083;DHT22;4577;48.704;9.000;2022-11-15T00:15:40;9.60;85.40
9083;DHT22;4577;48.704;9.000;2022-11-15T00:18:06;9.60;85.40
9083;DHT22;4577;48.704;9.000;2022-11-15T00:23:05;9.60;85.20
9083;DHT22;4577;48.704;9.000;2022-11-15T00:27:59;9.60;85.00
9083;DHT22;4577;48.704;9.000;2022-11-15T00:30:26;9.60;85.20
9083;DHT22;4577;48.704;9.000;2022-11-15T00:32:51;9.50;85.10
9083;DHT22;4577;48.704;9.000;2022-11-15T00:35:18;9.50;85.00
9083;DHT22;4577;48.704;9.000;2022-11-15T00:40:11;9.60;85.00
9083;DHT22;4577;48.704;9.000;2022-11-15T00:42:38;9.40;84.70
9083;DHT22;4577;48.704;9.000;2022-11-15T00:45:04;9.50;84.80
9083;DHT22;4577;48.704;9.000;2022-11-15T00:47:29;9.40;84.70
9083;DHT22;4577;48.704;9.000;2022-11-15T00:49:55;9.40;84.90
9083;DHT22;4577;48.704;9.000;2022-11-15T00:57:13;9.30;85.80
9083;DHT22;4577;48.704;9.000;2022-11-15T01:02:04;9.30;86.00
9083;DHT22;4577;48.704;9.000;2022-11-15T01:06:56;9.30;86.00
9083;DHT22;4577;48.704;9.000;2022-11-15T01:11:48;9.10;85.80
9083;DHT22;4577;48.704;9.000;2022-11-15T01:16:40;9.20;86.20
9083;DHT22;4577;48.704;9.000;2022-11-15T01:19:05;8.90;85.90
9083;DHT22;4577;48.704;9.000;2022-11-15T01:21:31;9.10;86.10
9083;DHT22;4577;48.704;9.000;2022-11-15T01:26:24;9.20;86.20
9083;DHT22;4577;48.704;9.000;2022-11-15T01:28:50;9.10;85.90
9083;DHT22;4577;48.704;9.000;2022-11-15T01:31:18;9.10;86.20
9083;DHT22;4577;48.704;9.000;2022-11-15T01:33:45;9.50;86.60
9083;DHT22;4577;48.704;9.000;2022-11-15T01:36:17;9.00;86.10
9083;DHT22;4577;48.704;9.000;2022-11-15T01:38:43;9.00;86.30
9083;DHT22;4577;48.704;9.000;2022-11-15T01:41:16;9.10;86.30
9083;DHT22;4577;48.704;9.000;2022-11-15T01:46:29;8.70;85.90
9083;DHT22;4577;48.704;9.000;2022-11-15T01:49:03;9.10;86.20
9083;DHT22;4577;48.704;9.000;2022-11-15T01:51:31;9.00;86.10
9083;DHT22;4577;48.704;9.000;2022-11-15T01:54:02;9.00;86.30
9083;DHT22;4577;48.704;9.000;2022-11-15T01:56:32;8.90;86.10
9083;DHT22;4577;48.704;9.000;2022-11-15T01:59:02;8.90;86.20
9083;DHT22;4577;48.704;9.000;2022-11-15T02:01:30;8.70;86.00
9083;DHT22;4577;48.704;9.000;2022-11-15T02:04:28;8.90;86.30
9083;DHT22;4577;48.704;9.000;2022-11-15T02:06:54;8.90;86.30
9083;DHT22;4577;48.704;9.000;2022-11-15T02:09:19;8.80;86.30
9083;DHT22;4577;48.704;9.000;2022-11-15T02:14:13;8.80;86.50
9083;DHT22;4577;48.704;9.000;2022-11-15T02:30:36;8.80;85.90
9083;DHT22;4577;48.704;9.000;2022-11-15T02:35:59;8.70;85.70
9083;DHT22;4577;48.704;9.000;2022-11-15T02:38:58;8.70;86.00
9083;DHT22;4577;48.704;9.000;2022-11-15T02:41:46;8.70;86.10
9083;DHT22;4577;48.704;9.000;2022-11-15T02:44:26;8.60;86.20
9083;DHT22;4577;48.704;9.000;2022-11-15T02:47:03;8.60;86.30
9083;DHT22;4577;48.704;9.000;2022-11-15T02:49:48;8.40;86.40
9083;DHT22;4577;48.704;9.000;2022-11-15T02:52:20;8.60;86.80
9083;DHT22;4577;48.704;9.000;2022-11-15T02:54:57;8.60;86.70
9083;DHT22;4577;48.704;9.000;2022-11-15T02:57:39;8.60;86.60
9083;DHT22;4577;48.704;9.000;2022-11-15T03:00:14;8.60;86.60
9083;DHT22;4577;48.704;9.000;2022-11-15T03:05:52;8.50;86.10
9083;DHT22;4577;48.704;9.000;2022-11-15T03:08:37;8.50;86.60
9083;DHT22;4577;48.704;9.000;2022-11-15T03:11:11;8.40;86.50
9083;DHT22;4577;48.704;9.000;2022-11-15T03:13:54;8.50;86.90
9083;DHT22;4577;48.704;9.000;2022-11-15T03:19:50;8.50;86.70
9083;DHT22;4577;48.704;9.000;2022-11-15T03:22:19;8.20;87.40
9083;DHT22;4577;48.704;9.000;2022-11-15T03:24:50;8.40;87.50
9083;DHT22;4577;48.704;9.000;2022-11-15T03:27:20;8.50;87.40
9083;DHT22;4577;48.704;9.000;2022-11-15T03:29:51;8.60;87.10
9083;DHT22;4577;48.704;9.000;2022-11-15T03:32:28;8.60;87.30
9083;DHT22;4577;48.704;9.000;2022-11-15T03:35:00;8.50;86.80
9083;DHT22;4577;48.704;9.000;2022-11-15T03:37:55;9.00;87.70
9083;DHT22;4577;48.704;9.000;2022-11-15T03:40:29;8.50;87.20
9083;DHT22;4577;48.704;9.000;2022-11-15T03:46:05;8.40;87.20
9083;DHT22;4577;48.704;9.000;2022-11-15T03:48:37;8.60;87.80
9083;DHT22;4577;48.704;9.000;2022-11-15T03:53:31;8.70;88.30
9083;DHT22;4577;48.704;9.000;2022-11-15T03:55:57;8.40;88.00
9083;DHT22;4577;48.704;9.000;2022-11-15T03:58:23;8.50;88.10
9083;DHT22;4577;48.704;9.000;2022-11-15T04:00:48;8.30;87.90
9083;DHT22;4577;48.704;9.000;2022-11-15T04:05:40;8.30;87.70
9083;DHT22;4577;48.704;9.000;2022-11-15T04:12:58;8.40;87.90
9083;DHT22;4577;48.704;9.000;2022-11-15T04:15:24;8.60;87.80
9083;DHT22;4577;48.704;9.000;2022-11-15T04:17:54;8.60;88.00
9083;DHT22;4577;48.704;9.000;2022-11-15T04:20:26;8.60;87.90
9083;DHT22;4577;48.704;9.000;2022-11-15T04:23:18;8.60;87.80
9083;DHT22;4577;48.704;9.000;2022-11-15T04:26:05;8.60;87.80
9083;DHT22;4577;48.704;9.000;2022-11-15T04:33:24;8.40;88.20
9083;DHT22;4577;48.704;9.000;2022-11-15T04:38:35;8.50;88.70
9083;DHT22;4577;48.704;9.000;2022-11-15T04:43:28;8.50;88.90
9083;DHT22;4577;48.704;9.000;2022-11-15T04:48:19;8.40;88.50
9083;DHT22;4577;48.704;9.000;2022-11-15T04:50:47;8.50;89.00
9083;DHT22;4577;48.704;9.000;2022-11-15T04:55:39;8.50;89.10
9083;DHT22;4577;48.704;9.000;2022-11-15T05:10:34;8.30;89.70
9083;DHT22;4577;48.704;9.000;2022-11-15T05:15:26;8.30;89.70
9083;DHT22;4577;48.704;9.000;2022-11-15T05:17:57;8.40;89.60
9083;DHT22;4577;48.704;9.000;2022-11-15T05:30:08;8.40;89.50
9083;DHT22;4577;48.704;9.000;2022-11-15T05:32:33;8.40;89.20
9083;DHT22;4577;48.704;9.000;2022-11-15T05:37:25;8.30;89.80
9083;DHT22;4577;48.704;9.000;2022-11-15T05:44:47;8.30;90.40
9083;DHT22;4577;48.704;9.000;2022-11-15T05:47:22;8.30;90.40
9083;DHT22;4577;48.704;9.000;2022-11-15T05:49:50;8.30;90.30
9083;DHT22;4577;48.704;9.000;2022-11-15T05:52:20;8.30;90.30
9083;DHT22;4577;48.704;9.000;2022-11-15T05:59:40;8.40;90.30
9083;DHT22;4577;48.704;9.000;2022-11-15T06:02:09;8.10;90.10
9083;DHT22;4577;48.704;9.000;2022-11-15T06:04:35;8.10;90.10
9083;DHT22;4577;48.704;9.000;2022-11-15T06:09:26;7.90;90.10
9083;DHT22;4577;48.704;9.000;2022-11-15T06:11:52;8.20;90.20
9083;DHT22;4577;48.704;9.000;2022-11-15T06:26:28;8.00;90.20
9083;DHT22;4577;48.704;9.000;2022-11-15T06:28:54;8.30;90.30
9083;DHT22;4577;48.704;9.000;2022-11-15T06:33:46;8.50;90.40
9083;DHT22;4577;48.704;9.000;2022-11-15T06:36:13;8.40;90.40
9083;DHT22;4577;48.704;9.000;2022-11-15T06:41:09;8.30;90.30
9083;DHT22;4577;48.704;9.000;2022-11-15T06:43:36;8.70;90.50
9083;DHT22;4577;48.704;9.000;2022-11-15T06:46:04;8.30;90.30
9083;DHT22;4577;48.704;9.000;2022-11-15T06:48:31;8.40;90.20
9083;DHT22;4577;48.704;9.000;2022-11-15T06:50:58;8.50;90.30
9083;DHT22;4577;48.704;9.000;2022-11-15T06:53:25;8.30;90.00
9083;DHT22;4577;48.704;9.000;2022-11-15T06:55:51;8.40;90.20
9083;DHT22;4577;48.704;9.000;2022-11-15T07:03:09;8.30;90.10
9083;DHT22;4577;48.704;9.000;2022-11-15T07:05:36;8.30;90.20
9083;DHT22;4577;48.704;9.000;2022-11-15T07:10:28;8.50;90.20
9083;DHT22;4577;48.704;9.000;2022-11-15T07:12:55;8.50;90.10
9083;DHT22;4577;48.704;9.000;2022-11-15T07:15:24;8.60;90.30
9083;DHT22;4577;48.704;9.000;2022-11-15T07:20:17;8.70;89.60
9083;DHT22;4577;48.704;9.000;2022-11-15T07:22:43;8.70;89.70
9083;DHT22;4577;48.704;9.000;2022-11-15T07:25:12;8.70;89.50
9083;DHT22;4577;48.704;9.000;2022-11-15T07:30:04;8.80;89.60
9083;DHT22;4577;48.704;9.000;2022-11-15T07:32:30;8.90;89.70
9083;DHT22;4577;48.704;9.000;2022-11-15T07:34:56;9.00;89.50
9083;DHT22;4577;48.704;9.000;2022-11-15T07:39:48;8.80;89.30
9083;DHT22;4577;48.704;9.000;2022-11-15T07:42:13;9.40;89.90
9083;DHT22;4577;48.704;9.000;2022-11-15T07:47:24;9.10;89.80
9083;DHT22;4577;48.704;9.000;2022-11-15T07:57:07;9.40;89.80
9083;DHT22;4577;48.704;9.000;2022-11-15T08:14:11;9.50;88.30
9083;DHT22;4577;48.704;9.000;2022-11-15T08:19:03;9.70;87.50
9083;DHT22;4577;48.704;9.000;2022-11-15T08:23:55;9.90;86.90
9083;DHT22;4577;48.704;9.000;2022-11-15T08:26:20;10.00;85.00
9083;DHT22;4577;48.704;9.000;2022-11-15T08:31:17;10.20;84.40
9083;DHT22;4577;48.704;9.000;2022-11-15T08:33:43;10.30;84.50
9083;DHT22;4577;48.704;9.000;2022-11-15T08:36:15;10.40;83.60
9083;DHT22;4577;48.704;9.000;2022-11-15T08:41:14;10.60;82.80
9083;DHT22;4577;48.704;9.000;2022-11-15T08:46:11;10.70;82.20
9083;DHT22;4577;48.704;9.000;2022-11-15T09:12:58;11.10;81.30
9083;DHT22;4577;48.704;9.000;2022-11-15T09:15:24;11.10;80.70
9083;DHT22;4577;48.704;9.000;2022-11-15T09:20:16;11.50;81.20
9083;DHT22;4577;48.704;9.000;2022-11-15T09:22:42;11.20;80.80
9083;DHT22;4577;48.704;9.000;2022-11-15T09:25:08;11.20;80.90
9083;DHT22;4577;48.704;9.000;2022-11-15T09:32:28;11.20;81.60
9083;DHT22;4577;48.704;9.000;2022-11-15T09:34:55;11.10;81.30
9083;DHT22;4577;48.704;9.000;2022-11-15T09:50:38;11.70;80.50
9083;DHT22;4577;48.704;9.000;2022-11-15T09:55:46;11.70;81.10
9083;DHT22;4577;48.704;9.000;2022-11-15T09:58:24;11.70;81.30
9083;DHT22;4577;48.704;9.000;2022-11-15T10:03:35;11.50;81.10
9083;DHT22;4577;48.704;9.000;2022-11-15T10:06:04;11.80;81.50
9083;DHT22;4577;48.704;9.000;2022-11-15T10:11:30;11.90;80.70
9083;DHT22;4577;48.704;9.000;2022-11-15T10:14:01;12.00;80.20
9083;DHT22;4577;48.704;9.000;2022-11-15T10:16:50;12.10;79.90
9083;DHT22;4577;48.704;9.000;2022-11-15T10:22:11;12.20;78.50
9083;DHT22;4577;48.704;9.000;2022-11-15T10:24:44;10.80;77.10
9083;DHT22;4577;48.704;9.000;2022-11-15T10:27:14;12.20;78.40
9083;DHT22;4577;48.704;9.000;2022-11-15T10:29:45;12.10;77.90
9083;DHT22;4577;48.704;9.000;2022-11-15T10:32:11;12.20;77.90
9083;DHT22;4577;48.704;9.000;2022-11-15T10:41:56;12.30;77.70
9083;DHT22;4577;48.704;9.000;2022-11-15T10:44:23;12.20;77.80
9083;DHT22;4577;48.704;9.000;2022-11-15T10:49:23;12.30;78.50
9083;DHT22;4577;48.704;9.000;2022-11-15T10:54:46;12.30;78.60
9083;DHT22;4577;48.704;9.000;2022-11-15T10:57:19;12.30;78.70
9083;DHT22;4577;48.704;9.000;2022-11-15T10:59:49;12.30;79.00
9083;DHT22;4577;48.704;9.000;2022-11-15T11:02:45;12.40;79.40
9083;DHT22;4577;48.704;9.000;2022-11-15T11:08:01;12.40;79.50
9083;DHT22;4577;48.704;9.000;2022-11-15T11:10:28;12.40;80.30
9083;DHT22;4577;48.704;9.000;2022-11-15T11:15:23;12.50;79.30
9083;DHT22;4577;48.704;9.000;2022-11-15T11:18:16;12.50;79.20
9083;DHT22;4577;48.704;9.000;2022-11-15T11:21:34;12.60;78.90
9083;DHT22;4577;48.704;9.000;2022-11-15T11:23:54;12.50;78.40
9083;DHT22;4577;48.704;9.000;2022-11-15T11:26:42;12.60;78.20
9083;DHT22;4577;48.704;9.000;2022-11-15T11:29:34;12.70;78.00
9083;DHT22;4577;48.704;9.000;2022-11-15T11:32:30;12.70;78.20
9083;DHT22;4577;48.704;9.000;2022-11-15T11:37:57;12.70;78.80
9083;DHT22;4577;48.704;9.000;2022-11-15T11:40:32;12.70;78.90
9083;DHT22;4577;48.704;9.000;2022-11-15T11:43:25;12.80;78.80
9083;DHT22;4577;48.704;9.000;2022-11-15T11:46:11;12.80;78.60
9083;DHT22;4577;48.704;9.000;2022-11-15T11:48:44;12.90;79.10
9083;DHT22;4577;48.704;9.000;2022-11-15T11:51:23;12.90;79.50
9083;DHT22;4577;48.704;9.000;2022-11-15T11:54:06;12.90;80.10
9083;DHT22;4577;48.704;9.000;2022-11-15T11:56:41;13.00;80.50
9083;DHT22;4577;48.704;9.000;2022-11-15T11:59:42;12.90;79.90
9083;DHT22;4577;48.704;9.000;2022-11-15T12:02:27;13.00;79.90
9083;DHT22;4577;48.704;9.000;2022-11-15T12:05:03;13.10;79.10
9083;DHT22;4577;48.704;9.000;2022-11-15T12:07:33;13.10;78.60
9083;DHT22;4577;48.704;9.000;2022-11-15T12:12:44;13.20;78.10
9083;DHT22;4577;48.704;9.000;2022-11-15T12:15:21;13.20;78.60
9083;DHT22;4577;48.704;9.000;2022-11-15T12:17:48;13.10;78.60
9083;DHT22;4577;48.704;9.000;2022-11-15T12:20:20;13.20;78.70
9083;DHT22;4577;48.704;9.000;2022-11-15T12:25:52;13.10;78.80
9083;DHT22;4577;48.704;9.000;2022-11-15T12:28:39;13.10;78.90
9083;DHT22;4577;48.704;9.000;2022-11-15T12:31:23;13.10;79.30
9083;DHT22;4577;48.704;9.000;2022-11-15T12:33:55;13.10;79.20
9083;DHT22;4577;48.704;9.000;2022-11-15T12:39:04;13.10;79.30
9083;DHT22;4577;48.704;9.000;2022-11-15T12:41:33;13.10;79.60
9083;DHT22;4577;48.704;9.000;2022-11-15T13:02:44;13.20;79.20
9083;DHT22;4577;48.704;9.000;2022-11-15T13:22:42;13.30;78.80
9083;DHT22;4577;48.704;9.000;2022-11-15T13:28:09;13.10;79.00
9083;DHT22;4577;48.704;9.000;2022-11-15T13:30:36;13.20;79.30
9083;DHT22;4577;48.704;9.000;2022-11-15T13:33:14;12.90;79.40
9083;DHT22;4577;48.704;9.000;2022-11-15T13:35:42;13.20;80.00
9083;DHT22;4577;48.704;9.000;2022-11-15T13:38:19;13.20;80.50
9083;DHT22;4577;48.704;9.000;2022-11-15T13:46:22;13.10;81.60
9083;DHT22;4577;48.704;9.000;2022-11-15T13:49:00;13.10;82.00
9083;DHT22;4577;48.704;9.000;2022-11-15T13:51:50;13.10;82.30
9083;DHT22;4577;48.704;9.000;2022-11-15T13:54:38;13.00;82.70
9083;DHT22;4577;48.704;9.000;2022-11-15T13:57:23;13.00;83.40
9083;DHT22;4577;48.704;9.000;2022-11-15T13:59:52;15.00;85.10
9083;DHT22;4577;48.704;9.000;2022-11-15T14:02:25;13.00;82.70
9083;DHT22;4577;48.704;9.000;2022-11-15T14:04:57;13.00;82.70
9083;DHT22;4577;48.704;9.000;2022-11-15T14:07:25;13.00;82.80
9083;DHT22;4577;48.704;9.000;2022-11-15T14:12:27;13.10;83.50
9083;DHT22;4577;48.704;9.000;2022-11-15T14:14:53;12.70;82.80
9083;DHT22;4577;48.704;9.000;2022-11-15T14:17:32;13.10;83.20
9083;DHT22;4577;48.704;9.000;2022-11-15T14:19:58;13.20;83.40
9083;DHT22;4577;48.704;9.000;2022-11-15T14:22:28;13.20;83.40
9083;DHT22;4577;48.704;9.000;2022-11-15T14:27:41;13.20;83.90
9083;DHT22;4577;48.704;9.000;2022-11-15T14:30:17;13.10;83.40
9083;DHT22;4577;48.704;9.000;2022-11-15T14:32:50;13.10;83.70
9083;DHT22;4577;48.704;9.000;2022-11-15T14:35:19;13.00;83.30
9083;DHT22;4577;48.704;9.000;2022-11-15T14:40:15;13.10;83.60
9083;DHT22;4577;48.704;9.000;2022-11-15T14:45:15;13.10;83.60
9083;DHT22;4577;48.704;9.000;2022-11-15T14:47:42;13.10;83.70
9083;DHT22;4577;48.704;9.000;2022-11-15T14:50:18;13.00;83.40
9083;DHT22;4577;48.704;9.000;2022-11-15T14:55:26;13.00;83.90
9083;DHT22;4577;48.704;9.000;2022-11-15T14:57:53;12.90;84.00
9083;DHT22;4577;48.704;9.000;2022-11-15T15:00:19;13.00;83.90
9083;DHT22;4577;48.704;9.000;2022-11-15T15:02:46;12.90;83.70
9083;DHT22;4577;48.704;9.000;2022-11-15T15:05:20;12.80;83.80
9083;DHT22;4577;48.704;9.000;2022-11-15T15:07:46;12.90;84.30
9083;DHT22;4577;48.704;9.000;2022-11-15T15:10:13;12.90;84.30
9083;DHT22;4577;48.704;9.000;2022-11-15T15:12:40;12.90;84.80
9083;DHT22;4577;48.704;9.000;2022-11-15T15:15:11;12.90;85.00
9083;DHT22;4577;48.704;9.000;2022-11-15T15:22:30;12.80;84.60
9083;DHT22;4577;48.704;9.000;2022-11-15T15:29:48;12.90;84.50
9083;DHT22;4577;48.704;9.000;2022-11-15T15:42:14;12.80;85.10
9083;DHT22;4577;48.704;9.000;2022-11-15T15:47:11;12.70;85.30
9083;DHT22;4577;48.704;9.000;2022-11-15T15:49:37;12.70;85.40
9083;DHT22;4577;48.704;9.000;2022-11-15T15:52:03;12.70;85.40
9083;DHT22;4577;48.704;9.000;2022-11-15T15:54:29;12.70;85.50
9083;DHT22;4577;48.704;9.000;2022-11-15T16:04:13;12.70;86.10
9083;DHT22;4577;48.704;9.000;2022-11-15T16:06:40;12.70;85.90
9083;DHT22;4577;48.704;9.000;2022-11-15T16:09:14;12.70;86.10
9083;DHT22;4577;48.704;9.000;2022-11-15T16:11:40;12.70;86.00
9083;DHT22;4577;48.704;9.000;2022-11-15T16:14:07;12.60;85.90
9083;DHT22;4577;48.704;9.000;2022-11-15T16:16:34;12.50;86.00
9083;DHT22;4577;48.704;9.000;2022-11-15T16:19:00;12.70;86.10
9083;DHT22;4577;48.704;9.000;2022-11-15T16:21:27;12.60;85.90
9083;DHT22;4577;48.704;9.000;2022-11-15T16:26:26;12.60;85.80
9083;DHT22;4577;48.704;9.000;2022-11-15T16:33:47;12.60;85.40
9083;DHT22;4577;48.704;9.000;2022-11-15T16:36:19;12.60;85.50
9083;DHT22;4577;48.704;9.000;2022-11-15T16:46:12;12.50;85.30
9083;DHT22;4577;48.704;9.000;2022-11-15T16:48:39;12.40;85.30
9083;DHT22;4577;48.704;9.000;2022-11-15T16:51:05;12.50;85.40
9083;DHT22;4577;48.704;9.000;2022-11-15T17:00:53;12.50;85.20
9083;DHT22;4577;48.704;9.000;2022-11-15T17:03:21;12.40;84.90
9083;DHT22;4577;48.704;9.000;2022-11-15T17:05:48;12.60;83.90
9083;DHT22;4577;48.704;9.000;2022-11-15T17:08:14;12.40;83.30
9083;DHT22;4577;48.704;9.000;2022-11-15T17:10:40;12.50;83.00
9083;DHT22;4577;48.704;9.000;2022-11-15T17:13:09;12.50;83.40
9083;DHT22;4577;48.704;9.000;2022-11-15T17:18:03;12.40;83.40
9083;DHT22;4577;48.704;9.000;2022-11-15T17:22:55;12.40;84.10
9083;DHT22;4577;48.704;9.000;2022-11-15T17:30:13;12.40;84.00
9083;DHT22;4577;48.704;9.000;2022-11-15T17:32:41;12.50;84.30
9083;DHT22;4577;48.704;9.000;2022-11-15T17:35:08;12.50;84.30
9083;DHT22;4577;48.704;9.000;2022-11-15T17:42:27;12.70;84.60
9083;DHT22;4577;48.704;9.000;2022-11-15T17:44:52;12.50;84.40
9083;DHT22;4577;48.704;9.000;2022-11-15T17:52:11;12.40;84.40
9083;DHT22;4577;48.704;9.000;2022-11-15T17:54:37;12.40;84.40
9083;DHT22;4577;48.704;9.000;2022-11-15T17:57:03;12.60;84.80
9083;DHT22;4577;48.704;9.000;2022-11-15T18:01:56;12.40;84.30
9083;DHT22;4577;48.704;9.000;2022-11-15T18:06:53;12.40;84.60
9083;DHT22;4577;48.704;9.000;2022-11-15T18:09:20;12.40;84.90
9083;DHT22;4577;48.704;9.000;2022-11-15T18:14:17;12.40;85.10
9083;DHT22;4577;48.704;9.000;2022-11-15T18:19:12;12.40;86.00
9083;DHT22;4577;48.704;9.000;2022-11-15T18:21:40;12.40;85.70
9083;DHT22;4577;48.704;9.000;2022-11-15T18:24:23;12.40;85.60
9083;DHT22;4577;48.704;9.000;2022-11-15T18:26:49;12.40;85.70
9083;DHT22;4577;48.704;9.000;2022-11-15T18:29:16;12.50;85.90
9083;DHT22;4577;48.704;9.000;2022-11-15T18:31:42;12.30;85.70
9083;DHT22;4577;48.704;9.000;2022-11-15T18:34:09;12.40;85.60
9083;DHT22;4577;48.704;9.000;2022-11-15T18:36:35;12.40;85.70
9083;DHT22;4577;48.704;9.000;2022-11-15T18:39:02;12.40;85.80
9083;DHT22;4577;48.704;9.000;2022-11-15T18:41:29;12.40;85.80
9083;DHT22;4577;48.704;9.000;2022-11-15T18:43:59;12.40;85.40
9083;DHT22;4577;48.704;9.000;2022-11-15T18:46:27;12.00;85.10
9083;DHT22;4577;48.704;9.000;2022-11-15T18:48:54;12.50;85.40
9083;DHT22;4577;48.704;9.000;2022-11-15T18:51:23;12.40;85.50
9083;DHT22;4577;48.704;9.000;2022-11-15T18:53:53;12.40;85.60
9083;DHT22;4577;48.704;9.000;2022-11-15T18:56:20;12.90;86.30
9083;DHT22;4577;48.704;9.000;2022-11-15T18:58:53;12.50;86.10
9083;DHT22;4577;48.704;9.000;2022-11-15T19:01:20;12.40;86.30
9083;DHT22;4577;48.704;9.000;2022-11-15T19:03:49;12.40;86.80
9083;DHT22;4577;48.704;9.000;2022-11-15T19:06:17;12.40;87.20
9083;DHT22;4577;48.704;9.000;2022-11-15T19:08:45;12.30;87.30
9083;DHT22;4577;48.704;9.000;2022-11-15T19:11:14;12.30;87.50
9083;DHT22;4577;48.704;9.000;2022-11-15T19:16:10;12.00;87.70
9083;DHT22;4577;48.704;9.000;2022-11-15T19:18:37;12.20;88.20
9083;DHT22;4577;48.704;9.000;2022-11-15T19:21:05;12.30;88.30
9083;DHT22;4577;48.704;9.000;2022-11-15T19:23:35;12.20;88.40
9083;DHT22;4577;48.704;9.000;2022-11-15T19:26:02;12.20;88.40
9083;DHT22;4577;48.704;9.000;2022-11-15T19:28:28;12.20;88.80
9083;DHT22;4577;48.704;9.000;2022-11-15T19:31:15;12.20;88.80
9083;DHT22;4577;48.704;9.000;2022-11-15T19:33:42;12.30;89.00
9083;DHT22;4577;48.704;9.000;2022-11-15T19:36:14;12.30;89.10
9083;DHT22;4577;48.704;9.000;2022-11-15T19:38:41;12.30;89.30
9083;DHT22;4577;48.704;9.000;2022-11-15T19:41:10;12.20;89.20
9083;DHT22;4577;48.704;9.000;2022-11-15T19:46:04;12.30;89.40
9083;DHT22;4577;48.704;9.000;2022-11-15T19:48:31;12.20;89.10
9083;DHT22;4577;48.704;9.000;2022-11-15T19:51:02;12.30;89.10
9083;DHT22;4577;48.704;9.000;2022-11-15T19:53:29;12.10;88.80
9083;DHT22;4577;48.704;9.000;2022-11-15T19:55:59;12.20;89.10
9083;DHT22;4577;48.704;9.000;2022-11-15T19:58:25;12.10;89.60
9083;DHT22;4577;48.704;9.000;2022-11-15T20:01:07;12.20;89.70
9083;DHT22;4577;48.704;9.000;2022-11-15T20:03:38;12.30;90.00
9083;DHT22;4577;48.704;9.000;2022-11-15T20:06:10;12.20;89.40
9083;DHT22;4577;48.704;9.000;2022-11-15T20:08:36;11.90;88.70
9083;DHT22;4577;48.704;9.000;2022-11-15T20:11:03;12.20;88.40
9083;DHT22;4577;48.704;9.000;2022-11-15T20:13:29;12.20;88.00
9083;DHT22;4577;48.704;9.000;2022-11-15T20:15:55;12.30;88.10
9083;DHT22;4577;48.704;9.000;2022-11-15T20:18:23;12.30;88.00
9083;DHT22;4577;48.704;9.000;2022-11-15T20:23:15;12.30;87.80
9083;DHT22;4577;48.704;9.000;2022-11-15T20:25:45;12.30;87.80
9083;DHT22;4577;48.704;9.000;2022-11-15T20:28:19;12.20;87.00
9083;DHT22;4577;48.704;9.000;2022-11-15T20:30:46;12.10;86.60
9083;DHT22;4577;48.704;9.000;2022-11-15T20:33:13;12.30;87.20
9083;DHT22;4577;48.704;9.000;2022-11-15T20:35:39;12.40;87.90
9083;DHT22;4577;48.704;9.000;2022-11-15T20:38:08;12.20;87.90
9083;DHT22;4577;48.704;9.000;2022-11-15T20:40:35;12.30;87.90
9083;DHT22;4577;48.704;9.000;2022-11-15T20:45:28;12.30;87.40
9083;DHT22;4577;48.704;9.000;2022-11-15T20:47:54;12.20;87.20
9083;DHT22;4577;48.704;9.000;2022-11-15T20:50:22;12.20;87.10
9083;DHT22;4577;48.704;9.000;2022-11-15T20:52:48;12.30;87.60
9083;DHT22;4577;48.704;9.000;2022-11-15T20:57:40;12.10;87.60
9083;DHT22;4577;48.704;9.000;2022-11-15T21:00:06;12.10;87.60
9083;DHT22;4577;48.704;9.000;2022-11-15T21:02:32;12.10;87.70
9083;DHT22;4577;48.704;9.000;2022-11-15T21:04:58;11.90;87.90
9083;DHT22;4577;48.704;9.000;2022-11-15T21:07:24;12.10;88.00
9083;DHT22;4577;48.704;9.000;2022-11-15T21:09:49;12.10;87.90
9083;DHT22;4577;48.704;9.000;2022-11-15T21:19:52;12.00;89.30
9083;DHT22;4577;48.704;9.000;2022-11-15T21:22:18;12.00;89.40
9083;DHT22;4577;48.704;9.000;2022-11-15T21:24:44;12.10;89.40
9083;DHT22;4577;48.704;9.000;2022-11-15T21:27:10;12.10;89.10
9083;DHT22;4577;48.704;9.000;2022-11-15T21:29:35;12.00;88.80
9083;DHT22;4577;48.704;9.000;2022-11-15T21:32:08;12.10;89.50
9083;DHT22;4577;48.704;9.000;2022-11-15T21:34:35;12.00;90.00
9083;DHT22;4577;48.704;9.000;2022-11-15T21:37:01;12.10;90.30
9083;DHT22;4577;48.704;9.000;2022-11-15T21:39:27;12.00;90.40
9083;DHT22;4577;48.704;9.000;2022-11-15T21:44:19;12.00;89.30
9083;DHT22;4577;48.704;9.000;2022-11-15T21:56:29;12.00;89.00
9083;DHT22;4577;48.704;9.000;2022-11-15T22:01:22;12.00;88.80
9083;DHT22;4577;48.704;9.000;2022-11-15T22:04:07;12.00;88.80
9083;DHT22;4577;48.704;9.000;2022-11-15T22:06:34;11.90;89.00
9083;DHT22;4577;48.704;9.000;2022-11-15T22:09:00;11.80;89.10
9083;DHT22;4577;48.704;9.000;2022-11-15T22:11:27;12.00;89.60
9083;DHT22;4577;48.704;9.000;2022-11-15T22:16:19;12.00;89.60
9083;DHT22;4577;48.704;9.000;2022-11-15T22:18:44;12.00;89.80
9083;DHT22;4577;48.704;9.000;2022-11-15T22:21:14;11.90;90.00
9083;DHT22;4577;48.704;9.000;2022-11-15T22:23:41;11.90;90.30
9083;DHT22;4577;48.704;9.000;2022-11-15T22:26:09;11.80;90.40
9083;DHT22;4577;48.704;9.000;2022-11-15T22:31:01;11.90;90.70
9083;DHT22;4577;48.704;9.000;2022-11-15T22:33:29;11.90;90.80
9083;DHT22;4577;48.704;9.000;2022-11-15T22:35:56;11.70;91.10
9083;DHT22;4577;48.704;9.000;2022-11-15T22:38:21;11.80;91.20
9083;DHT22;4577;48.704;9.000;2022-11-15T22:40:47;11.80;91.20
9083;DHT22;4577;48.704;9.000;2022-11-15T22:43:16;11.80;91.20
9083;DHT22;4577;48.704;9.000;2022-11-15T22:48:21;11.80;91.60
9083;DHT22;4577;48.704;9.000;2022-11-15T22:50:47;11.70;91.40
9083;DHT22;4577;48.704;9.000;2022-11-15T22:53:13;11.70;90.40
9083;DHT22;4577;48.704;9.000;2022-11-15T22:55:39;11.70;90.50
9083;DHT22;4577;48.704;9.000;2022-11-15T23:00:33;11.70;90.50
9083;DHT22;4577;48.704;9.000;2022-11-15T23:02:59;11.60;90.90
9083;DHT22;4577;48.704;9.000;2022-11-15T23:10:17;11.60;90.50
9083;DHT22;4577;48.704;9.000;2022-11-15T23:13:03;11.70;90.90
9083;DHT22;4577;48.704;9.000;2022-11-15T23:15:42;11.70;90.00
9083;DHT22;4577;48.704;9.000;2022-11-15T23:18:26;11.70;88.80
9083;DHT22;4577;48.704;9.000;2022-11-15T23:28:11;11.80;88.50
9083;DHT22;4577;48.704;9.000;2022-11-15T23:30:37;11.60;88.50
9083;DHT22;4577;48.704;9.000;2022-11-15T23:33:22;11.60;88.40
9083;DHT22;4577;48.704;9.000;2022-11-15T23:38:33;11.60;87.60
9083;DHT22;4577;48.704;9.000;2022-11-15T23:41:02;11.70;87.90
9083;DHT22;4577;48.704;9.000;2022-11-15T23:43:28;11.20;87.80
9083;DHT22;4577;48.704;9.000;2022-11-15T23:48:20;11.50;88.80
9083;DHT22;4577;48.704;9.000;2022-11-15T23:50:47;11.50;89.80
9083;DHT22;4577;48.704;9.000;2022-11-15T23:53:14;11.50;89.50
9083;DHT22;4577;48.704;9.000;2022-11-15T23:58:06;11.50;90.00
